sensor_id;sensor_type;location;lat;lon;timestamp;P1;durP1;ratioP1;P2;durP2;ratioP2
8594;SDS011;4335;48.860;9.198;2022-09-03T00:00:10;2.33;;;1.27;;
8594;SDS011;4335;48.860;9.198;2022-09-03T00:02:39;1.43;;;1.33;;
8594;SDS011;4335;48.860;9.198;2022-09-03T00:05:12;2.00;;;1.40;;
8594;SDS011;4335;48.860;9.198;2022-09-03T00:07:46;2.23;;;1.47;;
8594;SDS011;4335;48.860;9.198;2022-09-03T00:10:21;2.20;;;1.50;;
8594;SDS011;4335;48.860;9.198;2022-09-03T00:12:55;2.47;;;1.97;;
8594;SDS011;4335;48.860;9.198;2022-09-03T00:15:26;3.00;;;2.40;;
8594;SDS011;4335;48.860;9.198;2022-09-03T00:18:00;1.70;;;1.43;;
8594;SDS011;4335;48.860;9.198;2022-09-03T00:20:32;2.17;;;1.50;;
8594;SDS011;4335;48.860;9.198;2022-09-03T00:23:10;2.80;;;1.90;;
8594;SDS011;4335;48.860;9.198;2022-09-03T00:25:46;2.67;;;1.60;;
8594;SDS011;4335;48.860;9.198;2022-09-03T00:28:22;2.23;;;1.50;;
8594;SDS011;4335;48.860;9.198;2022-09-03T00:31:01;2.43;;;1.60;;
8594;SDS011;4335;48.860;9.198;2022-09-03T00:33:36;3.07;;;1.60;;
8594;SDS011;4335;48.860;9.198;2022-09-03T00:36:13;1.80;;;1.40;;
8594;SDS011;4335;48.860;9.198;2022-09-03T00:38:48;1.97;;;1.30;;
8594;SDS011;4335;48.860;9.198;2022-09-03T00:41:24;1.67;;;1.23;;
8594;SDS011;4335;48.860;9.198;2022-09-03T00:44:08;1.70;;;1.40;;
8594;SDS011;4335;48.860;9.198;2022-09-03T00:46:51;1.47;;;1.30;;
8594;SDS011;4335;48.860;9.198;2022-09-03T00:49:25;1.50;;;1.30;;
8594;SDS011;4335;48.860;9.198;2022-09-03T00:52:04;1.73;;;1.63;;
8594;SDS011;4335;48.860;9.198;2022-09-03T00:54:40;4.40;;;1.70;;
8594;SDS011;4335;48.860;9.198;2022-09-03T00:57:28;1.70;;;1.37;;
8594;SDS011;4335;48.860;9.198;2022-09-03T01:00:05;2.40;;;1.43;;
8594;SDS011;4335;48.860;9.198;2022-09-03T01:05:37;1.60;;;1.50;;
8594;SDS011;4335;48.860;9.198;2022-09-03T01:08:25;1.40;;;1.30;;
8594;SDS011;4335;48.860;9.198;2022-09-03T01:11:10;1.50;;;1.40;;
8594;SDS011;4335;48.860;9.198;2022-09-03T01:13:55;2.70;;;1.50;;
8594;SDS011;4335;48.860;9.198;2022-09-03T01:16:30;1.40;;;1.30;;
8594;SDS011;4335;48.860;9.198;2022-09-03T01:19:18;1.40;;;1.30;;
8594;SDS011;4335;48.860;9.198;2022-09-03T01:22:09;1.73;;;1.37;;
8594;SDS011;4335;48.860;9.198;2022-09-03T01:24:54;1.53;;;1.43;;
8594;SDS011;4335;48.860;9.198;2022-09-03T01:27:39;1.80;;;1.20;;
8594;SDS011;4335;48.860;9.198;2022-09-03T01:30:14;4.30;;;1.40;;
8594;SDS011;4335;48.860;9.198;2022-09-03T01:32:46;1.63;;;1.40;;
8594;SDS011;4335;48.860;9.198;2022-09-03T01:35:22;1.93;;;1.30;;
8594;SDS011;4335;48.860;9.198;2022-09-03T01:38:06;3.90;;;1.40;;
8594;SDS011;4335;48.860;9.198;2022-09-03T01:40:47;1.70;;;1.23;;
8594;SDS011;4335;48.860;9.198;2022-09-03T01:43:26;1.40;;;1.30;;
8594;SDS011;4335;48.860;9.198;2022-09-03T01:46:08;1.63;;;1.40;;
8594;SDS011;4335;48.860;9.198;2022-09-03T01:48:43;5.63;;;1.57;;
8594;SDS011;4335;48.860;9.198;2022-09-03T01:51:18;1.57;;;1.37;;
8594;SDS011;4335;48.860;9.198;2022-09-03T01:54:07;1.50;;;1.37;;
8594;SDS011;4335;48.860;9.198;2022-09-03T01:57:13;2.93;;;1.50;;
8594;SDS011;4335;48.860;9.198;2022-09-03T01:59:52;1.20;;;1.10;;
8594;SDS011;4335;48.860;9.198;2022-09-03T02:02:28;2.43;;;1.40;;
8594;SDS011;4335;48.860;9.198;2022-09-03T02:04:58;2.33;;;1.47;;
8594;SDS011;4335;48.860;9.198;2022-09-03T02:07:32;1.53;;;1.20;;
8594;SDS011;4335;48.860;9.198;2022-09-03T02:10:01;2.53;;;1.53;;
8594;SDS011;4335;48.860;9.198;2022-09-03T02:12:31;1.57;;;1.27;;
8594;SDS011;4335;48.860;9.198;2022-09-03T02:15:03;2.03;;;1.67;;
8594;SDS011;4335;48.860;9.198;2022-09-03T02:17:37;2.00;;;1.30;;
8594;SDS011;4335;48.860;9.198;2022-09-03T02:20:08;1.60;;;1.30;;
8594;SDS011;4335;48.860;9.198;2022-09-03T02:22:38;1.60;;;1.27;;
8594;SDS011;4335;48.860;9.198;2022-09-03T02:25:07;3.60;;;1.60;;
8594;SDS011;4335;48.860;9.198;2022-09-03T02:27:35;2.57;;;1.77;;
8594;SDS011;4335;48.860;9.198;2022-09-03T02:30:04;1.90;;;1.47;;
8594;SDS011;4335;48.860;9.198;2022-09-03T02:32:32;1.97;;;1.17;;
8594;SDS011;4335;48.860;9.198;2022-09-03T02:35:02;3.03;;;1.27;;
8594;SDS011;4335;48.860;9.198;2022-09-03T02:37:35;4.77;;;1.37;;
8594;SDS011;4335;48.860;9.198;2022-09-03T02:40:03;1.37;;;1.27;;
8594;SDS011;4335;48.860;9.198;2022-09-03T02:42:34;1.53;;;1.30;;
8594;SDS011;4335;48.860;9.198;2022-09-03T02:45:03;1.50;;;1.40;;
8594;SDS011;4335;48.860;9.198;2022-09-03T02:47:39;3.03;;;1.57;;
8594;SDS011;4335;48.860;9.198;2022-09-03T02:50:11;2.30;;;1.50;;
8594;SDS011;4335;48.860;9.198;2022-09-03T02:52:38;3.83;;;1.57;;
8594;SDS011;4335;48.860;9.198;2022-09-03T02:55:06;2.20;;;1.30;;
8594;SDS011;4335;48.860;9.198;2022-09-03T02:57:34;1.60;;;1.30;;
8594;SDS011;4335;48.860;9.198;2022-09-03T03:00:02;2.53;;;1.70;;
8594;SDS011;4335;48.860;9.198;2022-09-03T03:02:31;2.37;;;1.53;;
8594;SDS011;4335;48.860;9.198;2022-09-03T03:04:58;1.77;;;1.67;;
8594;SDS011;4335;48.860;9.198;2022-09-03T03:07:27;2.90;;;1.30;;
8594;SDS011;4335;48.860;9.198;2022-09-03T03:10:00;3.47;;;1.30;;
8594;SDS011;4335;48.860;9.198;2022-09-03T03:12:28;4.40;;;2.87;;
8594;SDS011;4335;48.860;9.198;2022-09-03T03:14:55;3.67;;;2.73;;
8594;SDS011;4335;48.860;9.198;2022-09-03T03:17:23;3.93;;;1.97;;
8594;SDS011;4335;48.860;9.198;2022-09-03T03:19:50;4.07;;;2.00;;
8594;SDS011;4335;48.860;9.198;2022-09-03T03:22:22;2.63;;;1.37;;
8594;SDS011;4335;48.860;9.198;2022-09-03T03:24:51;7.33;;;4.50;;
8594;SDS011;4335;48.860;9.198;2022-09-03T03:27:21;5.83;;;2.73;;
8594;SDS011;4335;48.860;9.198;2022-09-03T03:29:51;3.87;;;1.70;;
8594;SDS011;4335;48.860;9.198;2022-09-03T03:32:21;1.67;;;1.47;;
8594;SDS011;4335;48.860;9.198;2022-09-03T03:34:48;2.60;;;1.63;;
8594;SDS011;4335;48.860;9.198;2022-09-03T03:37:18;2.70;;;1.90;;
8594;SDS011;4335;48.860;9.198;2022-09-03T03:39:45;2.77;;;1.57;;
8594;SDS011;4335;48.860;9.198;2022-09-03T03:42:14;1.60;;;1.50;;
8594;SDS011;4335;48.860;9.198;2022-09-03T03:44:41;3.53;;;2.90;;
8594;SDS011;4335;48.860;9.198;2022-09-03T03:47:09;6.90;;;4.97;;
8594;SDS011;4335;48.860;9.198;2022-09-03T03:49:36;3.23;;;2.00;;
8594;SDS011;4335;48.860;9.198;2022-09-03T03:52:04;4.67;;;2.37;;
8594;SDS011;4335;48.860;9.198;2022-09-03T03:54:31;3.87;;;1.80;;
8594;SDS011;4335;48.860;9.198;2022-09-03T03:56:59;4.37;;;3.37;;
8594;SDS011;4335;48.860;9.198;2022-09-03T03:59:34;5.50;;;3.80;;
8594;SDS011;4335;48.860;9.198;2022-09-03T04:02:02;3.97;;;2.60;;
8594;SDS011;4335;48.860;9.198;2022-09-03T04:04:32;1.80;;;1.50;;
8594;SDS011;4335;48.860;9.198;2022-09-03T04:07:00;2.57;;;2.07;;
8594;SDS011;4335;48.860;9.198;2022-09-03T04:09:32;2.63;;;1.93;;
8594;SDS011;4335;48.860;9.198;2022-09-03T04:12:00;2.23;;;1.80;;
8594;SDS011;4335;48.860;9.198;2022-09-03T04:14:32;1.90;;;1.67;;
8594;SDS011;4335;48.860;9.198;2022-09-03T04:17:08;1.80;;;1.70;;
8594;SDS011;4335;48.860;9.198;2022-09-03T04:19:35;1.80;;;1.70;;
8594;SDS011;4335;48.860;9.198;2022-09-03T04:22:06;2.20;;;1.57;;
8594;SDS011;4335;48.860;9.198;2022-09-03T04:24:33;2.97;;;2.10;;
8594;SDS011;4335;48.860;9.198;2022-09-03T04:27:04;3.73;;;2.70;;
8594;SDS011;4335;48.860;9.198;2022-09-03T04:29:35;3.23;;;2.60;;
8594;SDS011;4335;48.860;9.198;2022-09-03T04:32:06;6.73;;;2.00;;
8594;SDS011;4335;48.860;9.198;2022-09-03T04:34:56;3.40;;;2.03;;
8594;SDS011;4335;48.860;9.198;2022-09-03T04:37:24;2.47;;;1.87;;
8594;SDS011;4335;48.860;9.198;2022-09-03T04:39:54;1.57;;;1.47;;
8594;SDS011;4335;48.860;9.198;2022-09-03T04:42:21;4.27;;;2.63;;
8594;SDS011;4335;48.860;9.198;2022-09-03T04:44:50;3.67;;;3.10;;
8594;SDS011;4335;48.860;9.198;2022-09-03T04:47:17;2.83;;;2.20;;
8594;SDS011;4335;48.860;9.198;2022-09-03T04:49:48;2.43;;;2.23;;
8594;SDS011;4335;48.860;9.198;2022-09-03T04:52:15;1.90;;;1.70;;
8594;SDS011;4335;48.860;9.198;2022-09-03T04:54:43;2.40;;;2.13;;
8594;SDS011;4335;48.860;9.198;2022-09-03T04:57:10;1.73;;;1.50;;
8594;SDS011;4335;48.860;9.198;2022-09-03T04:59:41;2.10;;;1.90;;
8594;SDS011;4335;48.860;9.198;2022-09-03T05:02:10;2.00;;;1.80;;
8594;SDS011;4335;48.860;9.198;2022-09-03T05:04:45;5.23;;;3.90;;
8594;SDS011;4335;48.860;9.198;2022-09-03T05:07:12;4.87;;;2.77;;
8594;SDS011;4335;48.860;9.198;2022-09-03T05:09:43;5.40;;;3.70;;
8594;SDS011;4335;48.860;9.198;2022-09-03T05:12:10;3.57;;;2.17;;
8594;SDS011;4335;48.860;9.198;2022-09-03T05:14:38;3.67;;;2.70;;
8594;SDS011;4335;48.860;9.198;2022-09-03T05:17:07;2.67;;;2.10;;
8594;SDS011;4335;48.860;9.198;2022-09-03T05:19:36;3.70;;;1.73;;
8594;SDS011;4335;48.860;9.198;2022-09-03T05:22:04;1.90;;;1.70;;
8594;SDS011;4335;48.860;9.198;2022-09-03T05:24:32;3.00;;;1.80;;
8594;SDS011;4335;48.860;9.198;2022-09-03T05:27:05;3.30;;;1.87;;
8594;SDS011;4335;48.860;9.198;2022-09-03T05:29:32;2.03;;;1.57;;
8594;SDS011;4335;48.860;9.198;2022-09-03T05:32:03;2.63;;;1.90;;
8594;SDS011;4335;48.860;9.198;2022-09-03T05:34:32;2.93;;;1.80;;
8594;SDS011;4335;48.860;9.198;2022-09-03T05:37:06;2.90;;;1.83;;
8594;SDS011;4335;48.860;9.198;2022-09-03T05:39:34;5.43;;;2.30;;
8594;SDS011;4335;48.860;9.198;2022-09-03T05:42:04;2.00;;;1.87;;
8594;SDS011;4335;48.860;9.198;2022-09-03T05:44:31;3.53;;;2.43;;
8594;SDS011;4335;48.860;9.198;2022-09-03T05:47:00;2.63;;;2.33;;
8594;SDS011;4335;48.860;9.198;2022-09-03T05:49:34;2.63;;;2.10;;
8594;SDS011;4335;48.860;9.198;2022-09-03T05:52:05;2.63;;;1.87;;
8594;SDS011;4335;48.860;9.198;2022-09-03T05:54:34;2.47;;;2.27;;
8594;SDS011;4335;48.860;9.198;2022-09-03T05:57:01;2.30;;;1.90;;
8594;SDS011;4335;48.860;9.198;2022-09-03T05:59:29;2.90;;;1.80;;
8594;SDS011;4335;48.860;9.198;2022-09-03T06:01:57;3.70;;;1.70;;
8594;SDS011;4335;48.860;9.198;2022-09-03T06:04:30;2.80;;;1.60;;
8594;SDS011;4335;48.860;9.198;2022-09-03T06:06:59;2.10;;;1.90;;
8594;SDS011;4335;48.860;9.198;2022-09-03T06:09:26;2.03;;;1.67;;
8594;SDS011;4335;48.860;9.198;2022-09-03T06:11:54;4.83;;;1.90;;
8594;SDS011;4335;48.860;9.198;2022-09-03T06:14:28;3.03;;;1.87;;
8594;SDS011;4335;48.860;9.198;2022-09-03T06:16:56;2.80;;;2.17;;
8594;SDS011;4335;48.860;9.198;2022-09-03T06:19:23;5.13;;;3.70;;
8594;SDS011;4335;48.860;9.198;2022-09-03T06:21:53;1.73;;;1.60;;
8594;SDS011;4335;48.860;9.198;2022-09-03T06:24:20;2.30;;;2.10;;
8594;SDS011;4335;48.860;9.198;2022-09-03T06:26:51;4.63;;;1.70;;
8594;SDS011;4335;48.860;9.198;2022-09-03T06:29:18;3.30;;;2.03;;
8594;SDS011;4335;48.860;9.198;2022-09-03T06:31:46;2.33;;;1.90;;
8594;SDS011;4335;48.860;9.198;2022-09-03T06:34:18;4.70;;;2.20;;
8594;SDS011;4335;48.860;9.198;2022-09-03T06:36:49;3.43;;;1.80;;
8594;SDS011;4335;48.860;9.198;2022-09-03T06:39:21;2.60;;;1.90;;
8594;SDS011;4335;48.860;9.198;2022-09-03T06:41:49;3.20;;;1.67;;
8594;SDS011;4335;48.860;9.198;2022-09-03T06:44:20;3.77;;;1.83;;
8594;SDS011;4335;48.860;9.198;2022-09-03T06:46:50;5.27;;;2.20;;
8594;SDS011;4335;48.860;9.198;2022-09-03T06:49:21;2.67;;;1.90;;
8594;SDS011;4335;48.860;9.198;2022-09-03T06:51:56;2.50;;;2.00;;
8594;SDS011;4335;48.860;9.198;2022-09-03T06:54:28;3.57;;;2.00;;
8594;SDS011;4335;48.860;9.198;2022-09-03T06:56:55;3.17;;;1.87;;
8594;SDS011;4335;48.860;9.198;2022-09-03T06:59:26;3.30;;;2.03;;
8594;SDS011;4335;48.860;9.198;2022-09-03T07:01:53;2.43;;;1.93;;
8594;SDS011;4335;48.860;9.198;2022-09-03T07:04:22;2.47;;;2.00;;
8594;SDS011;4335;48.860;9.198;2022-09-03T07:06:54;4.00;;;2.00;;
8594;SDS011;4335;48.860;9.198;2022-09-03T07:09:22;3.77;;;2.07;;
8594;SDS011;4335;48.860;9.198;2022-09-03T07:11:51;2.10;;;1.90;;
8594;SDS011;4335;48.860;9.198;2022-09-03T07:14:19;3.33;;;1.83;;
8594;SDS011;4335;48.860;9.198;2022-09-03T07:16:47;2.60;;;2.10;;
8594;SDS011;4335;48.860;9.198;2022-09-03T07:19:18;4.00;;;2.10;;
8594;SDS011;4335;48.860;9.198;2022-09-03T07:21:45;5.10;;;2.30;;
8594;SDS011;4335;48.860;9.198;2022-09-03T07:24:13;2.20;;;1.90;;
8594;SDS011;4335;48.860;9.198;2022-09-03T07:26:41;2.70;;;2.43;;
8594;SDS011;4335;48.860;9.198;2022-09-03T07:29:14;1.70;;;1.60;;
8594;SDS011;4335;48.860;9.198;2022-09-03T07:31:44;4.80;;;2.27;;
8594;SDS011;4335;48.860;9.198;2022-09-03T07:34:12;3.23;;;2.20;;
8594;SDS011;4335;48.860;9.198;2022-09-03T07:36:41;2.30;;;2.10;;
8594;SDS011;4335;48.860;9.198;2022-09-03T07:39:11;2.20;;;2.00;;
8594;SDS011;4335;48.860;9.198;2022-09-03T07:41:40;3.20;;;2.50;;
8594;SDS011;4335;48.860;9.198;2022-09-03T07:44:09;5.17;;;2.73;;
8594;SDS011;4335;48.860;9.198;2022-09-03T07:46:42;2.83;;;2.50;;
8594;SDS011;4335;48.860;9.198;2022-09-03T07:49:20;3.10;;;2.57;;
8594;SDS011;4335;48.860;9.198;2022-09-03T07:51:48;2.50;;;2.30;;
8594;SDS011;4335;48.860;9.198;2022-09-03T07:54:21;3.10;;;2.27;;
8594;SDS011;4335;48.860;9.198;2022-09-03T07:56:51;2.20;;;2.00;;
8594;SDS011;4335;48.860;9.198;2022-09-03T07:59:24;4.60;;;3.70;;
8594;SDS011;4335;48.860;9.198;2022-09-03T08:01:54;4.33;;;3.00;;
8594;SDS011;4335;48.860;9.198;2022-09-03T08:04:21;3.13;;;2.30;;
8594;SDS011;4335;48.860;9.198;2022-09-03T08:06:49;3.70;;;2.57;;
8594;SDS011;4335;48.860;9.198;2022-09-03T08:09:19;3.07;;;2.77;;
8594;SDS011;4335;48.860;9.198;2022-09-03T08:11:47;2.80;;;2.30;;
8594;SDS011;4335;48.860;9.198;2022-09-03T08:14:14;2.50;;;2.20;;
8594;SDS011;4335;48.860;9.198;2022-09-03T08:16:43;3.77;;;2.87;;
8594;SDS011;4335;48.860;9.198;2022-09-03T08:19:12;3.73;;;2.63;;
8594;SDS011;4335;48.860;9.198;2022-09-03T08:21:40;4.20;;;2.20;;
8594;SDS011;4335;48.860;9.198;2022-09-03T08:24:08;3.23;;;2.30;;
8594;SDS011;4335;48.860;9.198;2022-09-03T08:26:36;2.20;;;2.00;;
8594;SDS011;4335;48.860;9.198;2022-09-03T08:29:06;2.83;;;2.47;;
8594;SDS011;4335;48.860;9.198;2022-09-03T08:31:33;3.17;;;2.40;;
8594;SDS011;4335;48.860;9.198;2022-09-03T08:34:04;4.50;;;2.40;;
8594;SDS011;4335;48.860;9.198;2022-09-03T08:36:33;4.77;;;2.53;;
8594;SDS011;4335;48.860;9.198;2022-09-03T08:39:02;3.23;;;2.40;;
8594;SDS011;4335;48.860;9.198;2022-09-03T08:41:35;3.07;;;2.73;;
8594;SDS011;4335;48.860;9.198;2022-09-03T08:44:13;3.17;;;2.43;;
8594;SDS011;4335;48.860;9.198;2022-09-03T08:46:54;4.73;;;2.67;;
8594;SDS011;4335;48.860;9.198;2022-09-03T08:49:30;3.20;;;2.90;;
8594;SDS011;4335;48.860;9.198;2022-09-03T08:52:16;4.63;;;2.93;;
8594;SDS011;4335;48.860;9.198;2022-09-03T08:54:57;3.83;;;3.17;;
8594;SDS011;4335;48.860;9.198;2022-09-03T08:57:39;4.70;;;3.50;;
8594;SDS011;4335;48.860;9.198;2022-09-03T09:00:10;3.20;;;2.77;;
8594;SDS011;4335;48.860;9.198;2022-09-03T09:02:40;3.33;;;3.03;;
8594;SDS011;4335;48.860;9.198;2022-09-03T09:05:29;4.37;;;3.00;;
8594;SDS011;4335;48.860;9.198;2022-09-03T09:08:12;3.63;;;2.83;;
8594;SDS011;4335;48.860;9.198;2022-09-03T09:10:46;4.03;;;2.70;;
8594;SDS011;4335;48.860;9.198;2022-09-03T09:13:20;3.37;;;2.87;;
8594;SDS011;4335;48.860;9.198;2022-09-03T09:15:54;3.90;;;3.23;;
8594;SDS011;4335;48.860;9.198;2022-09-03T09:18:32;3.93;;;2.70;;
8594;SDS011;4335;48.860;9.198;2022-09-03T09:21:13;4.57;;;2.80;;
8594;SDS011;4335;48.860;9.198;2022-09-03T09:23:45;2.90;;;2.60;;
8594;SDS011;4335;48.860;9.198;2022-09-03T09:26:14;5.20;;;2.83;;
8594;SDS011;4335;48.860;9.198;2022-09-03T09:28:44;2.97;;;2.77;;
8594;SDS011;4335;48.860;9.198;2022-09-03T09:31:13;3.93;;;2.80;;
8594;SDS011;4335;48.860;9.198;2022-09-03T09:33:42;3.95;;;2.97;;
8594;SDS011;4335;48.860;9.198;2022-09-03T09:36:11;3.97;;;2.45;;
8594;SDS011;4335;48.860;9.198;2022-09-03T09:38:43;2.90;;;2.55;;
8594;SDS011;4335;48.860;9.198;2022-09-03T09:41:13;4.18;;;2.30;;
8594;SDS011;4335;48.860;9.198;2022-09-03T09:43:42;2.92;;;2.40;;
8594;SDS011;4335;48.860;9.198;2022-09-03T09:46:12;3.38;;;2.63;;
8594;SDS011;4335;48.860;9.198;2022-09-03T09:48:46;3.90;;;2.60;;
8594;SDS011;4335;48.860;9.198;2022-09-03T09:51:21;2.63;;;2.40;;
8594;SDS011;4335;48.860;9.198;2022-09-03T09:54:01;4.15;;;2.60;;
8594;SDS011;4335;48.860;9.198;2022-09-03T09:56:41;2.63;;;2.42;;
8594;SDS011;4335;48.860;9.198;2022-09-03T09:59:09;3.17;;;2.72;;
8594;SDS011;4335;48.860;9.198;2022-09-03T10:01:38;3.15;;;2.28;;
8594;SDS011;4335;48.860;9.198;2022-09-03T10:04:08;4.47;;;2.80;;
8594;SDS011;4335;48.860;9.198;2022-09-03T10:06:38;3.17;;;2.63;;
8594;SDS011;4335;48.860;9.198;2022-09-03T10:09:23;2.70;;;2.40;;
8594;SDS011;4335;48.860;9.198;2022-09-03T10:11:55;2.75;;;2.50;;
8594;SDS011;4335;48.860;9.198;2022-09-03T10:14:38;2.50;;;2.30;;
8594;SDS011;4335;48.860;9.198;2022-09-03T10:17:13;3.53;;;2.20;;
8594;SDS011;4335;48.860;9.198;2022-09-03T10:19:47;3.22;;;2.80;;
8594;SDS011;4335;48.860;9.198;2022-09-03T10:22:39;3.05;;;2.75;;
8594;SDS011;4335;48.860;9.198;2022-09-03T10:25:10;2.83;;;2.58;;
8594;SDS011;4335;48.860;9.198;2022-09-03T10:27:41;2.60;;;2.40;;
8594;SDS011;4335;48.860;9.198;2022-09-03T10:30:09;2.33;;;2.13;;
8594;SDS011;4335;48.860;9.198;2022-09-03T10:32:40;2.45;;;2.10;;
8594;SDS011;4335;48.860;9.198;2022-09-03T10:35:13;2.80;;;2.47;;
8594;SDS011;4335;48.860;9.198;2022-09-03T10:37:53;4.03;;;2.40;;
8594;SDS011;4335;48.860;9.198;2022-09-03T10:40:33;2.78;;;2.40;;
8594;SDS011;4335;48.860;9.198;2022-09-03T10:43:17;3.05;;;2.45;;
8594;SDS011;4335;48.860;9.198;2022-09-03T10:45:59;2.60;;;2.40;;
8594;SDS011;4335;48.860;9.198;2022-09-03T10:48:44;2.50;;;2.30;;
8594;SDS011;4335;48.860;9.198;2022-09-03T10:51:22;3.05;;;2.38;;
8594;SDS011;4335;48.860;9.198;2022-09-03T10:54:01;3.05;;;2.28;;
8594;SDS011;4335;48.860;9.198;2022-09-03T10:56:41;3.20;;;2.22;;
8594;SDS011;4335;48.860;9.198;2022-09-03T10:59:23;3.85;;;2.22;;
8594;SDS011;4335;48.860;9.198;2022-09-03T11:02:14;2.40;;;2.20;;
8594;SDS011;4335;48.860;9.198;2022-09-03T11:04:55;2.60;;;2.20;;
8594;SDS011;4335;48.860;9.198;2022-09-03T11:07:27;3.08;;;2.55;;
8594;SDS011;4335;48.860;9.198;2022-09-03T11:10:12;2.80;;;2.60;;
8594;SDS011;4335;48.860;9.198;2022-09-03T11:12:43;2.92;;;2.50;;
8594;SDS011;4335;48.860;9.198;2022-09-03T11:15:18;2.80;;;2.60;;
8594;SDS011;4335;48.860;9.198;2022-09-03T11:17:52;3.45;;;2.60;;
8594;SDS011;4335;48.860;9.198;2022-09-03T11:20:23;3.00;;;2.80;;
8594;SDS011;4335;48.860;9.198;2022-09-03T11:22:52;3.40;;;2.50;;
8594;SDS011;4335;48.860;9.198;2022-09-03T11:25:29;2.80;;;2.60;;
8594;SDS011;4335;48.860;9.198;2022-09-03T11:28:02;3.03;;;2.50;;
8594;SDS011;4335;48.860;9.198;2022-09-03T11:30:46;3.47;;;2.77;;
8594;SDS011;4335;48.860;9.198;2022-09-03T11:33:29;3.40;;;3.10;;
8594;SDS011;4335;48.860;9.198;2022-09-03T11:36:00;4.60;;;2.80;;
8594;SDS011;4335;48.860;9.198;2022-09-03T11:38:31;3.10;;;2.77;;
8594;SDS011;4335;48.860;9.198;2022-09-03T11:41:10;2.90;;;2.60;;
8594;SDS011;4335;48.860;9.198;2022-09-03T11:43:40;3.07;;;2.87;;
8594;SDS011;4335;48.860;9.198;2022-09-03T11:46:09;3.17;;;2.90;;
8594;SDS011;4335;48.860;9.198;2022-09-03T11:48:40;2.97;;;2.67;;
8594;SDS011;4335;48.860;9.198;2022-09-03T11:53:59;4.30;;;2.70;;
8594;SDS011;4335;48.860;9.198;2022-09-03T11:56:29;3.33;;;3.03;;
8594;SDS011;4335;48.860;9.198;2022-09-03T12:01:49;4.00;;;3.17;;
8594;SDS011;4335;48.860;9.198;2022-09-03T12:04:23;3.10;;;2.80;;
8594;SDS011;4335;48.860;9.198;2022-09-03T12:07:02;4.77;;;3.70;;
8594;SDS011;4335;48.860;9.198;2022-09-03T12:09:55;6.53;;;3.50;;
8594;SDS011;4335;48.860;9.198;2022-09-03T12:12:44;5.00;;;3.27;;
8594;SDS011;4335;48.860;9.198;2022-09-03T12:15:24;2.90;;;2.60;;
8594;SDS011;4335;48.860;9.198;2022-09-03T12:18:05;3.63;;;2.90;;
8594;SDS011;4335;48.860;9.198;2022-09-03T12:20:47;3.00;;;2.80;;
8594;SDS011;4335;48.860;9.198;2022-09-03T12:23:27;5.97;;;4.63;;
8594;SDS011;4335;48.860;9.198;2022-09-03T12:26:00;3.73;;;3.13;;
8594;SDS011;4335;48.860;9.198;2022-09-03T12:28:35;3.77;;;2.93;;
8594;SDS011;4335;48.860;9.198;2022-09-03T12:31:14;4.40;;;3.53;;
8594;SDS011;4335;48.860;9.198;2022-09-03T12:33:50;3.47;;;3.10;;
8594;SDS011;4335;48.860;9.198;2022-09-03T12:36:22;3.70;;;3.40;;
8594;SDS011;4335;48.860;9.198;2022-09-03T12:38:50;3.60;;;3.20;;
8594;SDS011;4335;48.860;9.198;2022-09-03T12:41:27;4.63;;;3.97;;
8594;SDS011;4335;48.860;9.198;2022-09-03T12:43:58;3.90;;;3.30;;
8594;SDS011;4335;48.860;9.198;2022-09-03T12:46:35;4.43;;;4.03;;
8594;SDS011;4335;48.860;9.198;2022-09-03T12:49:03;4.67;;;3.63;;
8594;SDS011;4335;48.860;9.198;2022-09-03T12:51:32;4.67;;;3.07;;
8594;SDS011;4335;48.860;9.198;2022-09-03T12:54:02;4.87;;;4.17;;
8594;SDS011;4335;48.860;9.198;2022-09-03T12:56:38;3.43;;;3.13;;
8594;SDS011;4335;48.860;9.198;2022-09-03T12:59:12;4.57;;;3.53;;
8594;SDS011;4335;48.860;9.198;2022-09-03T13:01:44;4.93;;;4.07;;
8594;SDS011;4335;48.860;9.198;2022-09-03T13:04:16;4.00;;;3.63;;
8594;SDS011;4335;48.860;9.198;2022-09-03T13:06:49;6.60;;;3.40;;
8594;SDS011;4335;48.860;9.198;2022-09-03T13:09:23;3.70;;;3.40;;
8594;SDS011;4335;48.860;9.198;2022-09-03T13:12:00;3.73;;;3.40;;
8594;SDS011;4335;48.860;9.198;2022-09-03T13:14:39;4.00;;;3.60;;
8594;SDS011;4335;48.860;9.198;2022-09-03T13:17:20;5.00;;;3.83;;
8594;SDS011;4335;48.860;9.198;2022-09-03T13:20:00;5.33;;;3.40;;
8594;SDS011;4335;48.860;9.198;2022-09-03T13:22:43;5.40;;;3.30;;
8594;SDS011;4335;48.860;9.198;2022-09-03T13:25:19;3.73;;;2.73;;
8594;SDS011;4335;48.860;9.198;2022-09-03T13:27:53;4.50;;;3.23;;
8594;SDS011;4335;48.860;9.198;2022-09-03T13:30:30;3.97;;;2.87;;
8594;SDS011;4335;48.860;9.198;2022-09-03T13:33:04;3.50;;;2.70;;
8594;SDS011;4335;48.860;9.198;2022-09-03T13:35:36;5.07;;;3.10;;
8594;SDS011;4335;48.860;9.198;2022-09-03T13:38:08;3.20;;;2.90;;
8594;SDS011;4335;48.860;9.198;2022-09-03T13:40:47;3.20;;;2.80;;
8594;SDS011;4335;48.860;9.198;2022-09-03T13:43:21;3.57;;;2.87;;
8594;SDS011;4335;48.860;9.198;2022-09-03T13:45:58;4.90;;;2.90;;
8594;SDS011;4335;48.860;9.198;2022-09-03T13:48:29;2.40;;;2.20;;
8594;SDS011;4335;48.860;9.198;2022-09-03T13:51:20;3.50;;;1.80;;
8594;SDS011;4335;48.860;9.198;2022-09-03T13:53:56;3.67;;;2.00;;
8594;SDS011;4335;48.860;9.198;2022-09-03T13:56:49;2.80;;;2.20;;
8594;SDS011;4335;48.860;9.198;2022-09-03T13:59:28;1.90;;;1.70;;
8594;SDS011;4335;48.860;9.198;2022-09-03T14:02:12;3.27;;;2.70;;
8594;SDS011;4335;48.860;9.198;2022-09-03T14:05:00;4.00;;;2.50;;
8594;SDS011;4335;48.860;9.198;2022-09-03T14:07:43;5.43;;;2.97;;
8594;SDS011;4335;48.860;9.198;2022-09-03T14:10:20;3.73;;;3.37;;
8594;SDS011;4335;48.860;9.198;2022-09-03T14:12:54;3.73;;;3.17;;
8594;SDS011;4335;48.860;9.198;2022-09-03T14:15:33;4.57;;;2.50;;
8594;SDS011;4335;48.860;9.198;2022-09-03T14:18:12;3.00;;;2.20;;
8594;SDS011;4335;48.860;9.198;2022-09-03T14:20:46;3.93;;;2.47;;
8594;SDS011;4335;48.860;9.198;2022-09-03T14:23:24;4.03;;;3.00;;
8594;SDS011;4335;48.860;9.198;2022-09-03T14:25:58;2.63;;;2.10;;
8594;SDS011;4335;48.860;9.198;2022-09-03T14:28:29;3.40;;;2.43;;
8594;SDS011;4335;48.860;9.198;2022-09-03T14:31:02;4.93;;;3.00;;
8594;SDS011;4335;48.860;9.198;2022-09-03T14:33:45;4.37;;;2.70;;
8594;SDS011;4335;48.860;9.198;2022-09-03T14:36:20;4.60;;;2.30;;
8594;SDS011;4335;48.860;9.198;2022-09-03T14:39:00;3.83;;;2.40;;
8594;SDS011;4335;48.860;9.198;2022-09-03T14:42:09;4.27;;;2.40;;
8594;SDS011;4335;48.860;9.198;2022-09-03T14:45:07;4.27;;;2.70;;
8594;SDS011;4335;48.860;9.198;2022-09-03T14:47:48;3.70;;;2.10;;
8594;SDS011;4335;48.860;9.198;2022-09-03T14:50:50;6.40;;;2.37;;
8594;SDS011;4335;48.860;9.198;2022-09-03T14:56:28;3.37;;;2.50;;
8594;SDS011;4335;48.860;9.198;2022-09-03T14:59:09;4.17;;;2.27;;
8594;SDS011;4335;48.860;9.198;2022-09-03T15:02:09;5.17;;;2.47;;
8594;SDS011;4335;48.860;9.198;2022-09-03T15:05:03;2.30;;;2.10;;
8594;SDS011;4335;48.860;9.198;2022-09-03T15:07:40;5.43;;;2.17;;
8594;SDS011;4335;48.860;9.198;2022-09-03T15:10:15;4.20;;;2.40;;
8594;SDS011;4335;48.860;9.198;2022-09-03T15:12:50;4.10;;;2.33;;
8594;SDS011;4335;48.860;9.198;2022-09-03T15:15:20;3.77;;;2.47;;
8594;SDS011;4335;48.860;9.198;2022-09-03T15:18:01;3.10;;;2.60;;
8594;SDS011;4335;48.860;9.198;2022-09-03T15:20:43;4.70;;;2.27;;
8594;SDS011;4335;48.860;9.198;2022-09-03T15:23:22;2.63;;;2.30;;
8594;SDS011;4335;48.860;9.198;2022-09-03T15:26:05;3.13;;;2.20;;
8594;SDS011;4335;48.860;9.198;2022-09-03T15:29:00;4.07;;;2.10;;
8594;SDS011;4335;48.860;9.198;2022-09-03T15:31:41;3.23;;;1.90;;
8594;SDS011;4335;48.860;9.198;2022-09-03T15:34:18;2.27;;;2.07;;
8594;SDS011;4335;48.860;9.198;2022-09-03T15:37:07;2.40;;;1.80;;
8594;SDS011;4335;48.860;9.198;2022-09-03T15:39:39;2.10;;;1.80;;
8594;SDS011;4335;48.860;9.198;2022-09-03T15:42:09;2.27;;;2.07;;
8594;SDS011;4335;48.860;9.198;2022-09-03T15:44:47;4.83;;;1.90;;
8594;SDS011;4335;48.860;9.198;2022-09-03T15:47:28;2.47;;;2.10;;
8594;SDS011;4335;48.860;9.198;2022-09-03T15:50:03;2.20;;;2.00;;
8594;SDS011;4335;48.860;9.198;2022-09-03T15:52:37;4.80;;;2.50;;
8594;SDS011;4335;48.860;9.198;2022-09-03T15:55:24;3.97;;;2.20;;
8594;SDS011;4335;48.860;9.198;2022-09-03T15:58:03;2.60;;;1.93;;
8594;SDS011;4335;48.860;9.198;2022-09-03T16:03:32;3.87;;;2.13;;
8594;SDS011;4335;48.860;9.198;2022-09-03T16:06:23;2.53;;;1.93;;
8594;SDS011;4335;48.860;9.198;2022-09-03T16:09:04;2.40;;;2.10;;
8594;SDS011;4335;48.860;9.198;2022-09-03T16:11:38;2.70;;;1.80;;